Cap Bonavista — A8CH8 — position and weather

sailwx.info

Track history (hours):
 
Tides and Currents Weather Stations Pressure Air Temp Water Temp Dewpoint Dewpoint Depression Visibility Wind Speed Wind Dir Waves Ship Positions

Cap Bonavista

Last reported at 2015-Feb-25 19:10 UTC. Time now 2015-Mar-02 18:55 UTC.
Position N 35°60' W 005°29'.

Length 200 m; beam 29.8 m; draft 11.6 m.

Type: Cargo ship. MMSI: 636090647.

Date/timePositionNaut miles runAvg speedWind from/ knotsBaromVisibWave heightAir tempDewpointWater temp
2015-Feb-25 19:10N 35°60' W 005°29'5 8.3
2015-Feb-25 18:33N 36°03' W 005°24'6 4.7
2015-Feb-25 17:16N 36°09' W 005°26'0 0.0
2015-Feb-25 14:28N 36°09' W 005°26'0 0.0
2015-Feb-25 13:28N 36°09' W 005°26'0 0.0
2015-Feb-25 06:07N 36°09' W 005°26'0 0.0
2015-Feb-25 02:25N 36°09' W 005°26'0 0.0
2015-Feb-25 01:31N 36°09' W 005°26'1 0.0
2015-Feb-24 03:33N 36°09' W 005°26'2 2.3
2015-Feb-24 02:33N 36°08' W 005°23'6 5.7
2015-Feb-24 01:34N 36°04' W 005°18'4 3.8
2015-Feb-24 00:34N 36°03' W 005°14'3 3.3
2015-Feb-23 23:34N 36°04' W 005°10'5 4.5
2015-Feb-23 22:33N 36°04' W 005°04'1 0.1
2015-Feb-23 12:07N 36°04' W 005°04'4 0.3
2015-Feb-22 23:26N 36°01' W 005°06'2 1.8
2015-Feb-22 22:29N 36°00' W 005°08'3 2.8
2015-Feb-22 21:33N 36°01' W 005°11'5 0.2
2015-Feb-21 15:19N 35°58' W 005°06'4 4.5
2015-Feb-21 14:32N 35°59' W 005°10'9 9.5
2015-Feb-21 13:34N 35°59' W 005°22'179 7.8
2015-Feb-20 14:27N 36°30' W 009°01'4210.8
2015-Feb-20 10:33N 37°01' W 009°36'1211.8
2015-Feb-20 09:33N 37°13' W 009°34'5 4.7
2015-Feb-20 08:33N 37°18' W 009°33'1211.8
2015-Feb-20 07:32N 37°29' W 009°32'1212.0
2015-Feb-20 06:33N 37°41' W 009°31'1212.1
2015-Feb-20 05:33N 37°53' W 009°29'1212.2
2015-Feb-20 04:33N 38°05' W 009°28'1212.2
2015-Feb-20 03:33N 38°17' W 009°26'1211.9
2015-Feb-20 02:33N 38°29' W 009°25'1111.1
2015-Feb-20 01:33N 38°40' W 009°19'8 7.3
2015-Feb-20 00:32N 38°42' W 009°10'0 0.0
2015-Feb-19 23:29N 38°42' W 009°10'0 0.0
2015-Feb-19 22:32N 38°42' W 009°10'0 0.0
2015-Feb-19 21:33N 38°42' W 009°10'0 0.0
2015-Feb-19 19:31N 38°42' W 009°10'0 0.0
2015-Feb-19 18:22N 38°42' W 009°10'0 0.0
2015-Feb-19 17:32N 38°42' W 009°10'0 0.0
2015-Feb-19 16:21N 38°42' W 009°10'0 0.0
2015-Feb-19 15:29N 38°42' W 009°10'0 0.0
2015-Feb-19 13:24N 38°42' W 009°10'0 0.0
2015-Feb-19 11:14N 38°42' W 009°10'0 0.0
2015-Feb-19 10:29N 38°42' W 009°10'0 0.0
2015-Feb-19 09:32N 38°42' W 009°10'0 0.0
2015-Feb-19 08:15N 38°42' W 009°10'0 0.0
2015-Feb-19 07:32N 38°42' W 009°10'0 0.0
2015-Feb-19 06:33N 38°42' W 009°10'0 0.0
2015-Feb-19 05:26N 38°42' W 009°10'0 0.0
2015-Feb-19 04:26N 38°42' W 009°10'0 0.0
2015-Feb-19 03:23N 38°42' W 009°10'0 0.0
2015-Feb-19 02:23N 38°42' W 009°10'0 0.0
2015-Feb-19 01:32N 38°42' W 009°10'0 0.0
2015-Feb-19 00:20N 38°42' W 009°10'0 0.0
2015-Feb-18 22:29N 38°42' W 009°10'0 0.0
2015-Feb-18 21:32N 38°42' W 009°10'0 0.0
2015-Feb-18 20:32N 38°42' W 009°10'0 0.0
2015-Feb-18 19:23N 38°42' W 009°10'0 0.0
2015-Feb-18 18:14N 38°42' W 009°10'0 0.0
2015-Feb-18 17:14N 38°42' W 009°10'0 0.1
2015-Feb-18 15:30N 38°42' W 009°10'4 4.1
2015-Feb-18 14:32N 38°41' W 009°15'6 6.4
2015-Feb-18 13:33N 38°38' W 009°22'6 5.5
2015-Feb-18 12:29N 38°32' W 009°23'5 5.3
2015-Feb-18 11:33N 38°27' W 009°24'5 4.8
2015-Feb-18 10:33N 38°22' W 009°23'4 4.1
2015-Feb-18 09:32N 38°18' W 009°24'4 4.4
2015-Feb-18 08:33N 38°14' W 009°23'4 4.3
2015-Feb-18 07:33N 38°09' W 009°24'4 3.8
2015-Feb-18 06:33N 38°06' W 009°24'3 2.8
2015-Feb-18 05:33N 38°05' W 009°28'10 9.8
2015-Feb-18 04:33N 38°12' W 009°37'13 9.4
2015-Feb-18 03:09N 38°22' W 009°48'6 9.4
2015-Feb-18 02:31N 38°26' W 009°53'10 9.6
2015-Feb-18 01:29N 38°34' W 010°01'1313.4
2015-Feb-18 00:33N 38°46' W 010°06'1514.2
2015-Feb-17 23:32N 39°00' W 010°05'1514.3
2015-Feb-17 22:28N 39°15' W 009°60'11 0.2
2015-Feb-15 22:11N 39°07' W 009°51'710.7
2015-Feb-15 21:31N 38°60' W 009°51'1010.5
2015-Feb-15 20:33N 38°50' W 009°52'1010.1
2015-Feb-15 19:33N 38°40' W 009°51'  
Track history (hours):
 
Tides and Currents Weather Stations Pressure Air Temp Water Temp Dewpoint Dewpoint Depression Visibility Wind Speed Wind Dir Waves Ship Positions

Cap Bonavista

Last reported at 2015-Feb-25 19:10 UTC. Time now 2015-Mar-02 18:55 UTC.
Position N 35°60' W 005°29'.

Length 200 m; beam 29.8 m; draft 11.6 m.

Type: Cargo ship. MMSI: 636090647.

Date/timePositionNaut miles runAvg speedWind from/ knotsBaromVisibWave heightAir tempDewpointWater temp
2015-Feb-25 19:10N 35°60' W 005°29'5 8.3
2015-Feb-25 18:33N 36°03' W 005°24'6 4.7
2015-Feb-25 17:16N 36°09' W 005°26'0 0.0
2015-Feb-25 14:28N 36°09' W 005°26'0 0.0
2015-Feb-25 13:28N 36°09' W 005°26'0 0.0
2015-Feb-25 06:07N 36°09' W 005°26'0 0.0
2015-Feb-25 02:25N 36°09' W 005°26'0 0.0
2015-Feb-25 01:31N 36°09' W 005°26'1 0.0
2015-Feb-24 03:33N 36°09' W 005°26'2 2.3
2015-Feb-24 02:33N 36°08' W 005°23'6 5.7
2015-Feb-24 01:34N 36°04' W 005°18'4 3.8
2015-Feb-24 00:34N 36°03' W 005°14'3 3.3
2015-Feb-23 23:34N 36°04' W 005°10'5 4.5
2015-Feb-23 22:33N 36°04' W 005°04'1 0.1
2015-Feb-23 12:07N 36°04' W 005°04'4 0.3
2015-Feb-22 23:26N 36°01' W 005°06'2 1.8
2015-Feb-22 22:29N 36°00' W 005°08'3 2.8
2015-Feb-22 21:33N 36°01' W 005°11'5 0.2
2015-Feb-21 15:19N 35°58' W 005°06'4 4.5
2015-Feb-21 14:32N 35°59' W 005°10'9 9.5
2015-Feb-21 13:34N 35°59' W 005°22'179 7.8
2015-Feb-20 14:27N 36°30' W 009°01'4210.8
2015-Feb-20 10:33N 37°01' W 009°36'1211.8
2015-Feb-20 09:33N 37°13' W 009°34'5 4.7
2015-Feb-20 08:33N 37°18' W 009°33'1211.8
2015-Feb-20 07:32N 37°29' W 009°32'1212.0
2015-Feb-20 06:33N 37°41' W 009°31'1212.1
2015-Feb-20 05:33N 37°53' W 009°29'1212.2
2015-Feb-20 04:33N 38°05' W 009°28'1212.2
2015-Feb-20 03:33N 38°17' W 009°26'1211.9
2015-Feb-20 02:33N 38°29' W 009°25'1111.1
2015-Feb-20 01:33N 38°40' W 009°19'8 7.3
2015-Feb-20 00:32N 38°42' W 009°10'0 0.0
2015-Feb-19 23:29N 38°42' W 009°10'0 0.0
2015-Feb-19 22:32N 38°42' W 009°10'0 0.0
2015-Feb-19 21:33N 38°42' W 009°10'0 0.0
2015-Feb-19 19:31N 38°42' W 009°10'0 0.0
2015-Feb-19 18:22N 38°42' W 009°10'0 0.0
2015-Feb-19 17:32N 38°42' W 009°10'0 0.0
2015-Feb-19 16:21N 38°42' W 009°10'0 0.0
2015-Feb-19 15:29N 38°42' W 009°10'0 0.0
2015-Feb-19 13:24N 38°42' W 009°10'0 0.0
2015-Feb-19 11:14N 38°42' W 009°10'0 0.0
2015-Feb-19 10:29N 38°42' W 009°10'0 0.0
2015-Feb-19 09:32N 38°42' W 009°10'0 0.0
2015-Feb-19 08:15N 38°42' W 009°10'0 0.0
2015-Feb-19 07:32N 38°42' W 009°10'0 0.0
2015-Feb-19 06:33N 38°42' W 009°10'0 0.0
2015-Feb-19 05:26N 38°42' W 009°10'0 0.0
2015-Feb-19 04:26N 38°42' W 009°10'0 0.0
2015-Feb-19 03:23N 38°42' W 009°10'0 0.0
2015-Feb-19 02:23N 38°42' W 009°10'0 0.0
2015-Feb-19 01:32N 38°42' W 009°10'0 0.0
2015-Feb-19 00:20N 38°42' W 009°10'0 0.0
2015-Feb-18 22:29N 38°42' W 009°10'0 0.0
2015-Feb-18 21:32N 38°42' W 009°10'0 0.0
2015-Feb-18 20:32N 38°42' W 009°10'0 0.0
2015-Feb-18 19:23N 38°42' W 009°10'0 0.0
2015-Feb-18 18:14N 38°42' W 009°10'0 0.0
2015-Feb-18 17:14N 38°42' W 009°10'0 0.1
2015-Feb-18 15:30N 38°42' W 009°10'4 4.1
2015-Feb-18 14:32N 38°41' W 009°15'6 6.4
2015-Feb-18 13:33N 38°38' W 009°22'6 5.5
2015-Feb-18 12:29N 38°32' W 009°23'5 5.3
2015-Feb-18 11:33N 38°27' W 009°24'5 4.8
2015-Feb-18 10:33N 38°22' W 009°23'4 4.1
2015-Feb-18 09:32N 38°18' W 009°24'4 4.4
2015-Feb-18 08:33N 38°14' W 009°23'4 4.3
2015-Feb-18 07:33N 38°09' W 009°24'4 3.8
2015-Feb-18 06:33N 38°06' W 009°24'3 2.8
2015-Feb-18 05:33N 38°05' W 009°28'10 9.8
2015-Feb-18 04:33N 38°12' W 009°37'13 9.4
2015-Feb-18 03:09N 38°22' W 009°48'6 9.4
2015-Feb-18 02:31N 38°26' W 009°53'10 9.6
2015-Feb-18 01:29N 38°34' W 010°01'1313.4
2015-Feb-18 00:33N 38°46' W 010°06'1514.2
2015-Feb-17 23:32N 39°00' W 010°05'1514.3
2015-Feb-17 22:28N 39°15' W 009°60'11 0.2
2015-Feb-15 22:11N 39°07' W 009°51'710.7
2015-Feb-15 21:31N 38°60' W 009°51'1010.5
2015-Feb-15 20:33N 38°50' W 009°52'1010.1
2015-Feb-15 19:33N 38°40' W 009°51'  

Dump ship's entire track history